Time;durP1;ratioP1;P1;durP2;ratioP2;P2;SDS_P1;SDS_P2;PMS_P1;PMS_P2;Temp;Humidity;BMP_temperature;BMP_pressure;BME280_temperature;BME280_humidity;BME280_pressure;Samples;Min_cycle;Max_cycle;Signal;HPM_P1;HPM_P2
2023/06/05 00:00:17;;;;;;;3.35;3.13;;;;;;;;;;4907831;29;20040;-41
2023/06/05 00:02:42;;;;;;;5.22;3.83;;;;;;;;;;4908038;29;20052;-41
2023/06/05 00:05:09;;;;;;;3.92;2.80;;;;;;;;;;4906332;29;20036;-41
2023/06/05 00:07:37;;;;;;;7.15;3.40;;;;;;;;;;4908780;29;20036;-41
2023/06/05 00:10:04;;;;;;;4.88;3.10;;;;;;;;;;4907722;29;20084;-42
2023/06/05 00:12:29;;;;;;;3.17;2.97;;;;;;;;;;4906301;29;20429;-42
2023/06/05 00:14:54;;;;;;;7.85;4.53;;;;;;;;;;4908260;29;20047;-42
2023/06/05 00:17:20;;;;;;;3.40;3.10;;;;;;;;;;4908391;29;20102;-42
2023/06/05 00:19:45;;;;;;;4.60;3.55;;;;;;;;;;4908235;29;20041;-42
2023/06/05 00:22:11;;;;;;;4.07;3.00;;;;;;;;;;4910141;29;20067;-41
2023/06/05 00:24:36;;;;;;;3.55;3.25;;;;;;;;;;4910405;29;20035;-43
2023/06/05 00:27:01;;;;;;;4.35;3.22;;;;;;;;;;4906971;29;20051;-41
2023/06/05 00:29:27;;;;;;;5.55;3.00;;;;;;;;;;4907086;29;20552;-41
2023/06/05 00:31:53;;;;;;;3.78;3.25;;;;;;;;;;4907337;29;20685;-41
2023/06/05 00:34:19;;;;;;;3.20;2.90;;;;;;;;;;4908230;29;20504;-41
2023/06/05 00:36:44;;;;;;;6.32;3.28;;;;;;;;;;4909370;29;20044;-42
2023/06/05 00:39:10;;;;;;;3.95;3.22;;;;;;;;;;4908578;29;20175;-41
2023/06/05 00:41:37;;;;;;;3.53;3.25;;;;;;;;;;4909776;29;20032;-41
2023/06/05 00:44:02;;;;;;;9.95;3.83;;;;;;;;;;4907890;29;20025;-42
2023/06/05 00:46:28;;;;;;;4.40;3.30;;;;;;;;;;4907839;29;20504;-42
2023/06/05 00:48:53;;;;;;;3.95;3.55;;;;;;;;;;4908934;29;20040;-41
2023/06/05 00:51:20;;;;;;;3.15;2.95;;;;;;;;;;4906633;29;20047;-42
2023/06/05 00:53:47;;;;;;;3.30;3.10;;;;;;;;;;4908645;29;20036;-41
2023/06/05 00:56:12;;;;;;;3.63;3.33;;;;;;;;;;4908587;29;20035;-43
2023/06/05 00:58:38;;;;;;;4.13;3.65;;;;;;;;;;4905471;29;20032;-41
2023/06/05 01:01:05;;;;;;;4.60;3.35;;;;;;;;;;4909095;29;20111;-41
2023/06/05 01:03:33;;;;;;;4.15;3.45;;;;;;;;;;4908460;29;20038;-40
2023/06/05 01:06:03;;;;;;;3.95;3.50;;;;;;;;;;4896686;29;20042;-41
2023/06/05 01:08:41;;;;;;;5.50;3.40;;;;;;;;;;4907620;29;20048;-41
2023/06/05 01:11:35;;;;;;;6.60;3.78;;;;;;;;;;4909281;29;20490;-41
2023/06/05 01:14:23;;;;;;;4.03;3.55;;;;;;;;;;4850994;29;20049;-41
2023/06/05 01:16:55;;;;;;;3.50;3.20;;;;;;;;;;4851766;29;20050;-41
2023/06/05 01:19:24;;;;;;;5.38;3.45;;;;;;;;;;4851539;29;20052;-43
2023/06/05 01:21:49;;;;;;;4.53;3.25;;;;;;;;;;4852193;29;20086;-40
2023/06/05 01:24:15;;;;;;;5.20;3.55;;;;;;;;;;4848925;29;20468;-41
2023/06/05 01:27:39;;;;;;;3.97;3.63;;;;;;;;;;4849370;29;20049;-41
2023/06/05 01:30:14;;;;;;;3.60;3.38;;;;;;;;;;4816026;29;20141;-40
2023/06/05 01:33:12;;;;;;;6.05;3.83;;;;;;;;;;4815071;29;20137;-41
2023/06/05 01:35:39;;;;;;;4.03;3.50;;;;;;;;;;4819149;29;20045;-40
2023/06/05 01:38:06;;;;;;;4.03;3.67;;;;;;;;;;4815838;29;20076;-41
2023/06/05 01:40:32;;;;;;;3.95;3.65;;;;;;;;;;4817028;29;20046;-41
2023/06/05 01:43:00;;;;;;;6.43;4.00;;;;;;;;;;4815673;29;20129;-41
2023/06/05 01:45:26;;;;;;;4.45;3.95;;;;;;;;;;4815276;29;20096;-41
2023/06/05 01:47:51;;;;;;;7.63;3.72;;;;;;;;;;4815597;29;20039;-40
2023/06/05 01:50:18;;;;;;;5.45;3.80;;;;;;;;;;4832628;29;20091;-41
2023/06/05 01:52:46;;;;;;;5.22;3.47;;;;;;;;;;4888980;29;20048;-41
2023/06/05 01:55:23;;;;;;;6.15;3.72;;;;;;;;;;4890394;29;20123;-44
2023/06/05 01:57:49;;;;;;;4.25;3.45;;;;;;;;;;4888082;29;20044;-43
2023/06/05 02:00:15;;;;;;;3.78;3.47;;;;;;;;;;4887339;29;20076;-41
2023/06/05 02:02:47;;;;;;;4.30;3.70;;;;;;;;;;4885010;29;20045;-46
2023/06/05 02:05:14;;;;;;;5.45;3.70;;;;;;;;;;4888840;29;20033;-42
2023/06/05 02:07:41;;;;;;;3.80;3.50;;;;;;;;;;4903884;29;20148;-41
2023/06/05 02:10:08;;;;;;;4.13;3.60;;;;;;;;;;4904461;29;20036;-44
2023/06/05 02:12:34;;;;;;;5.90;4.07;;;;;;;;;;4906232;29;20033;-42
2023/06/05 02:15:00;;;;;;;7.05;5.00;;;;;;;;;;4906773;29;20096;-41
2023/06/05 02:17:26;;;;;;;4.57;3.67;;;;;;;;;;4904168;29;20553;-42
2023/06/05 02:19:52;;;;;;;5.07;3.38;;;;;;;;;;4906458;29;20036;-42
2023/06/05 02:22:18;;;;;;;7.80;3.65;;;;;;;;;;4908713;29;20524;-41
2023/06/05 02:24:44;;;;;;;5.22;3.78;;;;;;;;;;4905703;29;20028;-39
2023/06/05 02:27:10;;;;;;;3.47;3.17;;;;;;;;;;4905873;29;20043;-40
2023/06/05 02:29:38;;;;;;;7.68;3.45;;;;;;;;;;4908687;29;20418;-40
2023/06/05 02:32:06;;;;;;;3.92;3.53;;;;;;;;;;4905544;29;20489;-43
2023/06/05 02:34:32;;;;;;;6.22;4.32;;;;;;;;;;4908404;29;20039;-40
2023/06/05 02:36:58;;;;;;;4.25;3.90;;;;;;;;;;4906620;29;20044;-41
2023/06/05 02:39:25;;;;;;;5.35;3.47;;;;;;;;;;4907732;29;20043;-41
2023/06/05 02:41:51;;;;;;;4.75;3.80;;;;;;;;;;4902299;29;20062;-41
2023/06/05 02:44:16;;;;;;;4.65;3.70;;;;;;;;;;4905072;29;20665;-41
2023/06/05 02:46:42;;;;;;;5.28;3.67;;;;;;;;;;4905706;29;20048;-41
2023/06/05 02:49:07;;;;;;;4.07;3.78;;;;;;;;;;4904937;29;20062;-41
2023/06/05 02:51:33;;;;;;;3.85;3.45;;;;;;;;;;4906310;29;20040;-42
2023/06/05 02:53:58;;;;;;;4.35;3.92;;;;;;;;;;4908887;29;20036;-41
2023/06/05 02:56:26;;;;;;;4.60;3.80;;;;;;;;;;4904492;29;20037;-41
2023/06/05 02:58:53;;;;;;;12.48;4.22;;;;;;;;;;4907135;29;20040;-41
2023/06/05 03:01:18;;;;;;;4.20;3.88;;;;;;;;;;4908039;29;20032;-41
2023/06/05 03:03:44;;;;;;;6.40;3.90;;;;;;;;;;4903892;29;20083;-41
2023/06/05 03:06:11;;;;;;;8.00;3.80;;;;;;;;;;4907582;29;20040;-42
2023/06/05 03:08:37;;;;;;;6.40;3.55;;;;;;;;;;4907411;29;20071;-41
2023/06/05 03:11:03;;;;;;;6.15;3.78;;;;;;;;;;4904184;29;20107;-41
2023/06/05 03:13:30;;;;;;;4.85;3.60;;;;;;;;;;4906975;29;20195;-41
2023/06/05 03:16:00;;;;;;;5.53;3.33;;;;;;;;;;4911489;29;20378;-41
2023/06/05 03:18:27;;;;;;;6.43;3.80;;;;;;;;;;4907349;29;20072;-42
2023/06/05 03:20:56;;;;;;;3.78;3.38;;;;;;;;;;4908687;29;20111;-41
2023/06/05 03:23:25;;;;;;;6.03;3.60;;;;;;;;;;4909906;29;20066;-41
2023/06/05 03:25:51;;;;;;;4.75;3.20;;;;;;;;;;4911153;29;20028;-41
2023/06/05 03:28:21;;;;;;;4.30;3.20;;;;;;;;;;4910652;29;20056;-41
2023/06/05 03:30:46;;;;;;;5.95;3.72;;;;;;;;;;4909765;29;20028;-40
2023/06/05 03:33:13;;;;;;;5.47;3.92;;;;;;;;;;4910787;29;20571;-40
2023/06/05 03:35:42;;;;;;;6.05;3.67;;;;;;;;;;4908931;29;20111;-40
2023/06/05 03:38:09;;;;;;;4.07;3.67;;;;;;;;;;4909602;29;20063;-43
2023/06/05 03:40:34;;;;;;;3.35;3.10;;;;;;;;;;4909746;29;20104;-40
2023/06/05 03:43:00;;;;;;;8.15;3.22;;;;;;;;;;4905508;29;20609;-38
2023/06/05 03:45:27;;;;;;;4.75;3.80;;;;;;;;;;4909357;29;20037;-41
2023/06/05 03:47:53;;;;;;;5.35;3.28;;;;;;;;;;4909011;29;20068;-41
2023/06/05 03:50:20;;;;;;;3.90;3.60;;;;;;;;;;4909083;29;20570;-41
2023/06/05 03:52:52;;;;;;;3.38;3.17;;;;;;;;;;4908351;29;20345;-42
2023/06/05 03:55:18;;;;;;;3.63;3.33;;;;;;;;;;4907105;29;20043;-42
2023/06/05 03:57:44;;;;;;;7.80;3.55;;;;;;;;;;4906574;29;20083;-43
2023/06/05 04:00:10;;;;;;;4.10;3.70;;;;;;;;;;4908386;29;20754;-43
2023/06/05 04:02:36;;;;;;;3.83;3.45;;;;;;;;;;4909834;29;20132;-42
2023/06/05 04:05:03;;;;;;;3.85;3.55;;;;;;;;;;4907838;29;20044;-41
2023/06/05 04:07:29;;;;;;;3.72;3.08;;;;;;;;;;4907968;29;20072;-42
2023/06/05 04:09:55;;;;;;;7.28;3.30;;;;;;;;;;4910547;29;20129;-42
2023/06/05 04:12:20;;;;;;;3.40;3.10;;;;;;;;;;4907837;29;20180;-42
2023/06/05 04:14:46;;;;;;;3.90;3.58;;;;;;;;;;4910168;29;20115;-42
2023/06/05 04:17:13;;;;;;;4.00;3.47;;;;;;;;;;4907998;29;20120;-42
2023/06/05 04:19:39;;;;;;;3.83;3.53;;;;;;;;;;4906354;29;20048;-44
2023/06/05 04:22:05;;;;;;;4.40;4.00;;;;;;;;;;4908189;29;20107;-42
2023/06/05 04:24:30;;;;;;;6.03;3.75;;;;;;;;;;4908722;29;20043;-42
2023/06/05 04:26:56;;;;;;;4.95;4.45;;;;;;;;;;4909656;29;20036;-43
2023/06/05 04:29:22;;;;;;;9.65;4.75;;;;;;;;;;4909760;29;20481;-42
2023/06/05 04:31:47;;;;;;;5.35;4.80;;;;;;;;;;4906867;29;20501;-42
2023/06/05 04:34:13;;;;;;;6.88;5.38;;;;;;;;;;4910237;29;20091;-43
2023/06/05 04:36:40;;;;;;;7.82;5.80;;;;;;;;;;4907194;29;20047;-42
2023/06/05 04:39:14;;;;;;;8.45;5.88;;;;;;;;;;4910738;29;20489;-42
2023/06/05 04:41:44;;;;;;;7.97;6.20;;;;;;;;;;4908952;29;20048;-45
2023/06/05 04:44:16;;;;;;;7.00;5.38;;;;;;;;;;4908683;29;20143;-43
2023/06/05 04:46:43;;;;;;;;;;;;;;;;;;4904136;29;20047;-42
2023/06/05 04:49:12;;;;;;;5.47;4.97;;;;;;;;;;4905134;29;20042;-41
2023/06/05 04:51:38;;;;;;;5.75;4.60;;;;;;;;;;4898034;29;20470;-43
2023/06/05 04:54:05;;;;;;;5.85;4.35;;;;;;;;;;4907339;29;20043;-41
2023/06/05 04:56:32;;;;;;;6.60;4.05;;;;;;;;;;4907930;29;20150;-41
2023/06/05 04:58:59;;;;;;;10.43;4.90;;;;;;;;;;4891244;29;20036;-42
2023/06/05 05:01:24;;;;;;;6.38;4.38;;;;;;;;;;4905585;29;20396;-42
2023/06/05 05:03:51;;;;;;;5.30;4.65;;;;;;;;;;4900984;29;20020;-41
2023/06/05 05:06:19;;;;;;;5.55;4.03;;;;;;;;;;4905778;29;20651;-42
2023/06/05 05:08:48;;;;;;;8.63;4.43;;;;;;;;;;4904679;29;20473;-41
2023/06/05 05:11:14;;;;;;;8.98;4.68;;;;;;;;;;4907306;29;20059;-42
2023/06/05 05:13:39;;;;;;;6.18;3.97;;;;;;;;;;4907100;29;20036;-42
2023/06/05 05:16:05;;;;;;;5.32;4.05;;;;;;;;;;4900089;29;20371;-42
2023/06/05 05:18:30;;;;;;;5.07;3.55;;;;;;;;;;4907064;29;20068;-42
2023/06/05 05:20:56;;;;;;;10.07;4.05;;;;;;;;;;4902914;29;20054;-42
2023/06/05 05:23:22;;;;;;;5.47;3.97;;;;;;;;;;4909249;29;20052;-42
2023/06/05 05:25:47;;;;;;;4.45;3.80;;;;;;;;;;4900574;29;20095;-42
2023/06/05 05:28:14;;;;;;;5.60;4.05;;;;;;;;;;4904628;29;20044;-42
2023/06/05 05:30:39;;;;;;;5.35;4.07;;;;;;;;;;4899848;29;20044;-41
2023/06/05 05:33:05;;;;;;;5.72;3.38;;;;;;;;;;4899924;29;20039;-41
2023/06/05 05:35:31;;;;;;;4.82;3.88;;;;;;;;;;4900478;29;20389;-41
2023/06/05 05:37:56;;;;;;;6.80;4.00;;;;;;;;;;4902434;29;20520;-42
2023/06/05 05:40:22;;;;;;;12.32;4.13;;;;;;;;;;4901847;29;20036;-42
2023/06/05 05:42:47;;;;;;;4.05;3.75;;;;;;;;;;4900465;29;20044;-42
2023/06/05 05:45:12;;;;;;;5.93;3.72;;;;;;;;;;4900027;29;20063;-40
2023/06/05 05:47:38;;;;;;;4.47;3.33;;;;;;;;;;4907653;29;20211;-41
2023/06/05 05:50:05;;;;;;;4.68;3.70;;;;;;;;;;4903477;29;20043;-41
2023/06/05 05:52:30;;;;;;;7.97;3.85;;;;;;;;;;4905402;29;20149;-41
2023/06/05 05:54:58;;;;;;;3.83;3.20;;;;;;;;;;4907307;29;20172;-42
2023/06/05 05:57:23;;;;;;;4.55;3.28;;;;;;;;;;4904167;29;20131;-39
2023/06/05 05:59:48;;;;;;;3.33;3.03;;;;;;;;;;4908640;29;20060;-42
2023/06/05 06:02:14;;;;;;;4.72;3.55;;;;;;;;;;4908132;29;20125;-42
2023/06/05 06:04:40;;;;;;;4.38;3.40;;;;;;;;;;4905298;29;20031;-41
2023/06/05 06:07:05;;;;;;;5.30;3.47;;;;;;;;;;4902923;29;20119;-41
2023/06/05 06:09:31;;;;;;;5.45;4.88;;;;;;;;;;4900098;29;21105;-48
2023/06/05 06:11:57;;;;;;;3.45;3.22;;;;;;;;;;4903085;29;20036;-41
2023/06/05 06:14:23;;;;;;;4.78;3.22;;;;;;;;;;4906776;29;20093;-40
2023/06/05 06:16:50;;;;;;;3.03;2.80;;;;;;;;;;4908179;29;20051;-41
2023/06/05 06:19:16;;;;;;;3.38;3.00;;;;;;;;;;4901345;29;20036;-41
2023/06/05 06:21:42;;;;;;;3.47;3.22;;;;;;;;;;4897839;29;20055;-40
2023/06/05 06:24:08;;;;;;;3.17;2.92;;;;;;;;;;4905774;29;20124;-41
2023/06/05 06:26:34;;;;;;;4.15;3.03;;;;;;;;;;4904481;29;20123;-41
2023/06/05 06:28:59;;;;;;;3.10;2.90;;;;;;;;;;4907901;29;20119;-41
2023/06/05 06:31:25;;;;;;;3.67;3.20;;;;;;;;;;4901787;29;20052;-40
2023/06/05 06:33:50;;;;;;;3.50;3.20;;;;;;;;;;4906072;29;20044;-40
2023/06/05 06:36:17;;;;;;;3.60;3.30;;;;;;;;;;4903479;29;20035;-41
2023/06/05 06:38:43;;;;;;;3.63;2.90;;;;;;;;;;4906075;29;20032;-41
2023/06/05 06:41:08;;;;;;;8.85;3.03;;;;;;;;;;4901944;29;20047;-41
2023/06/05 06:43:34;;;;;;;4.47;2.83;;;;;;;;;;4907577;29;20032;-41
2023/06/05 06:46:00;;;;;;;2.85;2.63;;;;;;;;;;4909242;29;20093;-39
2023/06/05 06:48:25;;;;;;;3.53;2.78;;;;;;;;;;4910021;29;20036;-41
2023/06/05 06:50:52;;;;;;;4.88;2.80;;;;;;;;;;4908690;29;20067;-41
2023/06/05 06:53:18;;;;;;;3.38;2.80;;;;;;;;;;4912043;29;20114;-41
2023/06/05 06:55:44;;;;;;;3.88;2.92;;;;;;;;;;4911968;29;20043;-41
2023/06/05 06:58:09;;;;;;;2.80;2.60;;;;;;;;;;4908251;29;20036;-41
2023/06/05 07:00:35;;;;;;;3.33;2.58;;;;;;;;;;4912588;29;20385;-41
2023/06/05 07:03:00;;;;;;;3.03;2.70;;;;;;;;;;4909151;29;20040;-41
2023/06/05 07:05:26;;;;;;;6.55;3.00;;;;;;;;;;4911165;29;20039;-41
2023/06/05 07:07:51;;;;;;;3.17;2.45;;;;;;;;;;4906884;29;20381;-41
2023/06/05 07:10:16;;;;;;;4.57;2.47;;;;;;;;;;4909192;29;20051;-40
2023/06/05 07:12:42;;;;;;;7.75;2.90;;;;;;;;;;4907921;29;20080;-41
2023/06/05 07:15:07;;;;;;;3.22;2.50;;;;;;;;;;4910524;29;20490;-41
2023/06/05 07:17:33;;;;;;;2.75;2.55;;;;;;;;;;4909905;29;20239;-41
2023/06/05 07:19:59;;;;;;;4.72;2.83;;;;;;;;;;4904479;29;20064;-41
2023/06/05 07:22:28;;;;;;;4.07;2.85;;;;;;;;;;4905669;29;20048;-41
2023/06/05 07:24:53;;;;;;;2.83;2.35;;;;;;;;;;4909252;29;20028;-41
2023/06/05 07:27:20;;;;;;;3.97;2.47;;;;;;;;;;4909299;29;20461;-41
2023/06/05 07:29:46;;;;;;;6.97;2.53;;;;;;;;;;4911157;29;20036;-41
2023/06/05 07:32:12;;;;;;;4.50;3.13;;;;;;;;;;4908256;29;20127;-41
2023/06/05 07:34:38;;;;;;;7.03;2.88;;;;;;;;;;4911933;29;20028;-41
2023/06/05 07:37:04;;;;;;;5.13;2.63;;;;;;;;;;4909792;29;20050;-41
2023/06/05 07:39:29;;;;;;;3.53;2.50;;;;;;;;;;4909902;29;20032;-41
2023/06/05 07:41:55;;;;;;;3.63;2.63;;;;;;;;;;4909291;29;20139;-41
2023/06/05 07:44:21;;;;;;;2.95;2.30;;;;;;;;;;4908499;29;20421;-41
2023/06/05 07:46:48;;;;;;;3.95;2.45;;;;;;;;;;4909464;29;20037;-41
2023/06/05 07:49:15;;;;;;;2.50;2.15;;;;;;;;;;4909941;29;20611;-41
2023/06/05 07:51:42;;;;;;;4.85;2.83;;;;;;;;;;4906963;29;20520;-41
2023/06/05 07:54:09;;;;;;;3.40;2.25;;;;;;;;;;4908871;29;20035;-41
2023/06/05 07:56:36;;;;;;;4.05;2.30;;;;;;;;;;4909639;29;20559;-41
2023/06/05 07:59:02;;;;;;;2.80;2.60;;;;;;;;;;4907890;29;20029;-41
2023/06/05 08:01:36;;;;;;;7.63;2.72;;;;;;;;;;4910076;29;20048;-41
2023/06/05 08:04:07;;;;;;;3.45;2.70;;;;;;;;;;4907474;29;20040;-40
2023/06/05 08:06:37;;;;;;;2.53;2.33;;;;;;;;;;4908478;29;20090;-41
2023/06/05 08:09:03;;;;;;;3.55;2.30;;;;;;;;;;4910033;29;20047;-40
2023/06/05 08:11:29;;;;;;;2.30;2.20;;;;;;;;;;4909276;29;20044;-40
2023/06/05 08:13:55;;;;;;;3.45;2.03;;;;;;;;;;4910274;29;20392;-41
2023/06/05 08:16:20;;;;;;;4.53;3.10;;;;;;;;;;4910513;29;20043;-41
2023/06/05 08:18:46;;;;;;;4.05;3.05;;;;;;;;;;4904887;29;20032;-41
2023/06/05 08:21:12;;;;;;;3.20;2.90;;;;;;;;;;4908833;29;20100;-41
2023/06/05 08:23:38;;;;;;;3.90;2.85;;;;;;;;;;4910970;29;20508;-41
2023/06/05 08:26:10;;;;;;;4.35;3.95;;;;;;;;;;4909914;29;20040;-41
2023/06/05 08:28:38;;;;;;;8.23;4.20;;;;;;;;;;4907403;29;20038;-41
2023/06/05 08:31:05;;;;;;;6.05;5.50;;;;;;;;;;4910013;29;20072;-41
2023/06/05 08:33:31;;;;;;;8.65;5.20;;;;;;;;;;4906807;29;20103;-41
2023/06/05 08:35:57;;;;;;;11.07;7.35;;;;;;;;;;4909114;29;20127;-41
2023/06/05 08:38:22;;;;;;;8.00;6.18;;;;;;;;;;4907540;29;20036;-40
2023/06/05 08:40:56;;;;;;;4.75;4.35;;;;;;;;;;4909035;29;20100;-41
2023/06/05 08:43:22;;;;;;;6.57;4.28;;;;;;;;;;4909738;29;20438;-41
2023/06/05 08:45:51;;;;;;;5.43;4.50;;;;;;;;;;4907548;29;20052;-41
2023/06/05 08:48:18;;;;;;;6.53;4.55;;;;;;;;;;4904606;29;20131;-41
2023/06/05 08:50:44;;;;;;;5.93;5.20;;;;;;;;;;4910002;29;20028;-41
2023/06/05 08:53:12;;;;;;;7.00;4.78;;;;;;;;;;4906280;29;20402;-42
2023/06/05 08:55:39;;;;;;;9.80;3.80;;;;;;;;;;4910370;29;20036;-42
2023/06/05 08:58:05;;;;;;;6.13;3.80;;;;;;;;;;4910344;29;20505;-41
2023/06/05 09:00:30;;;;;;;5.53;3.58;;;;;;;;;;4908786;29;20043;-41
2023/06/05 09:02:56;;;;;;;4.60;3.80;;;;;;;;;;4907293;29;20370;-41
2023/06/05 09:05:21;;;;;;;8.38;3.50;;;;;;;;;;4910589;29;20083;-41
2023/06/05 09:07:47;;;;;;;5.60;3.85;;;;;;;;;;4905992;29;20083;-41
2023/06/05 09:10:27;;;;;;;5.20;4.00;;;;;;;;;;4907382;29;20075;-42
2023/06/05 09:12:56;;;;;;;6.88;3.90;;;;;;;;;;4907816;29;20610;-41
2023/06/05 09:15:33;;;;;;;7.15;3.83;;;;;;;;;;4902169;29;20032;-41
2023/06/05 09:18:12;;;;;;;4.35;3.97;;;;;;;;;;4900170;29;20405;-41
2023/06/05 09:20:43;;;;;;;7.10;4.40;;;;;;;;;;4905401;29;20031;-41
2023/06/05 09:23:26;;;;;;;5.05;3.63;;;;;;;;;;4907722;29;20044;-41
2023/06/05 09:25:53;;;;;;;6.07;3.95;;;;;;;;;;4904035;29;20028;-41
2023/06/05 09:28:19;;;;;;;7.57;4.97;;;;;;;;;;4907769;29;20103;-41
2023/06/05 09:30:58;;;;;;;4.43;3.88;;;;;;;;;;4908953;29;20474;-42
2023/06/05 09:33:25;;;;;;;4.20;3.80;;;;;;;;;;4907964;29;20119;-41
2023/06/05 09:36:07;;;;;;;4.47;4.05;;;;;;;;;;4909751;29;20028;-42
2023/06/05 09:38:32;;;;;;;;;;;;;;;;;;4910787;29;20056;-41
2023/06/05 09:41:09;;;;;;;7.50;4.25;;;;;;;;;;4909267;29;19918;-41
2023/06/05 09:43:36;;;;;;;9.85;4.25;;;;;;;;;;4905601;29;20056;-39
2023/06/05 09:46:13;;;;;;;5.75;4.00;;;;;;;;;;4908623;29;20036;-40
2023/06/05 09:48:39;;;;;;;6.03;3.53;;;;;;;;;;4906794;29;20541;-41
2023/06/05 09:51:16;;;;;;;4.38;3.85;;;;;;;;;;4907987;29;20392;-41
2023/06/05 09:53:43;;;;;;;4.15;3.80;;;;;;;;;;4907870;29;20103;-41
2023/06/05 09:56:14;;;;;;;5.00;3.78;;;;;;;;;;4903900;29;20478;-41
2023/06/05 09:58:51;;;;;;;5.28;3.95;;;;;;;;;;4907685;29;20691;-42
2023/06/05 10:01:22;;;;;;;6.78;3.67;;;;;;;;;;4903013;29;20547;-41
2023/06/05 10:04:09;;;;;;;6.10;4.30;;;;;;;;;;4907140;29;20043;-41
2023/06/05 10:06:36;;;;;;;5.45;4.43;;;;;;;;;;4906414;29;20043;-41
2023/06/05 10:09:02;;;;;;;6.00;4.07;;;;;;;;;;4904621;29;20477;-40
2023/06/05 10:11:28;;;;;;;5.25;4.03;;;;;;;;;;4907861;29;20048;-41
2023/06/05 10:13:55;;;;;;;6.13;3.95;;;;;;;;;;4905188;29;20046;-42
2023/06/05 10:16:20;;;;;;;4.65;4.13;;;;;;;;;;4906184;29;20040;-42
2023/06/05 10:18:47;;;;;;;4.95;4.35;;;;;;;;;;4907398;29;20385;-41
2023/06/05 10:21:18;;;;;;;7.05;4.43;;;;;;;;;;4906764;29;20025;-41
2023/06/05 10:24:01;;;;;;;4.17;3.77;;;;;;;;;;4904885;29;20107;-41
2023/06/05 10:26:51;;;;;;;8.85;3.90;;;;;;;;;;4907310;29;20401;-41
2023/06/05 10:29:33;;;;;;;6.43;4.20;;;;;;;;;;4904820;29;20179;-43
2023/06/05 10:32:03;;;;;;;6.93;4.60;;;;;;;;;;4904353;29;20079;-42
2023/06/05 10:34:38;;;;;;;5.85;3.97;;;;;;;;;;4907908;29;20151;-41
2023/06/05 10:37:03;;;;;;;5.78;3.95;;;;;;;;;;4904787;29;20044;-42
2023/06/05 10:39:30;;;;;;;5.22;3.95;;;;;;;;;;4906398;29;20063;-41
2023/06/05 10:41:57;;;;;;;5.63;4.28;;;;;;;;;;4907626;29;20040;-41
2023/06/05 10:44:42;;;;;;;6.13;3.90;;;;;;;;;;4906373;29;20091;-40
2023/06/05 10:47:32;;;;;;;5.75;4.30;;;;;;;;;;4904342;29;20040;-41
2023/06/05 10:50:25;;;;;;;4.05;3.63;;;;;;;;;;4902471;29;20032;-41
2023/06/05 10:52:52;;;;;;;3.67;3.38;;;;;;;;;;4899992;29;20132;-42
2023/06/05 10:55:20;;;;;;;4.40;3.70;;;;;;;;;;4904131;29;20064;-42
2023/06/05 10:58:00;;;;;;;4.65;3.47;;;;;;;;;;4888823;29;20391;-41
2023/06/05 11:00:29;;;;;;;3.80;3.10;;;;;;;;;;4903668;29;20041;-42
2023/06/05 11:02:55;;;;;;;5.75;3.17;;;;;;;;;;4903819;29;20048;-41
2023/06/05 11:05:21;;;;;;;3.92;3.03;;;;;;;;;;4904864;29;20047;-41
2023/06/05 11:07:47;;;;;;;4.32;3.05;;;;;;;;;;4905071;29;20036;-41
2023/06/05 11:10:20;;;;;;;3.35;3.05;;;;;;;;;;4902031;29;20462;-42
2023/06/05 11:12:46;;;;;;;3.08;2.83;;;;;;;;;;4905918;29;20409;-42
2023/06/05 11:15:12;;;;;;;3.08;2.83;;;;;;;;;;4906865;29;20032;-41
2023/06/05 11:17:46;;;;;;;4.78;3.50;;;;;;;;;;4905892;29;20052;-41
2023/06/05 11:20:23;;;;;;;5.50;3.30;;;;;;;;;;4901762;29;20067;-41
2023/06/05 11:22:52;;;;;;;4.05;3.15;;;;;;;;;;4905262;29;20044;-41
2023/06/05 11:25:17;;;;;;;4.18;2.78;;;;;;;;;;4904868;29;20167;-42
2023/06/05 11:27:52;;;;;;;3.20;2.78;;;;;;;;;;4904595;29;20131;-42
2023/06/05 11:30:20;;;;;;;4.03;3.00;;;;;;;;;;4904218;29;20040;-41
2023/06/05 11:32:46;;;;;;;3.17;2.90;;;;;;;;;;4907940;29;20040;-41
2023/06/05 11:35:11;;;;;;;3.78;2.75;;;;;;;;;;4907293;29;20098;-41
2023/06/05 11:37:38;;;;;;;6.80;2.70;;;;;;;;;;4906516;29;20389;-41
2023/06/05 11:40:08;;;;;;;3.03;2.72;;;;;;;;;;4909930;29;21127;-41
2023/06/05 11:42:33;;;;;;;7.25;3.17;;;;;;;;;;4907970;29;20156;-42
2023/06/05 11:44:59;;;;;;;5.05;2.60;;;;;;;;;;4911520;29;20119;-41
2023/06/05 11:47:29;;;;;;;4.20;2.45;;;;;;;;;;4907432;29;20048;-41
2023/06/05 11:50:08;;;;;;;5.57;2.83;;;;;;;;;;4908128;29;20040;-41
2023/06/05 11:52:33;;;;;;;5.30;2.45;;;;;;;;;;4910959;29;20446;-41
2023/06/05 11:55:19;;;;;;;3.63;2.20;;;;;;;;;;4908199;29;20047;-41
2023/06/05 11:57:49;;;;;;;2.65;2.40;;;;;;;;;;4907246;29;20048;-41
2023/06/05 12:00:22;;;;;;;3.88;2.25;;;;;;;;;;4908929;29;20076;-41
2023/06/05 12:02:47;;;;;;;3.10;2.70;;;;;;;;;;4910102;29;20044;-41
2023/06/05 12:05:13;;;;;;;6.13;2.80;;;;;;;;;;4909510;29;20036;-42
2023/06/05 12:07:39;;;;;;;4.43;3.15;;;;;;;;;;4908408;29;20044;-41
2023/06/05 12:10:07;;;;;;;6.03;3.70;;;;;;;;;;4907282;29;20584;-41
2023/06/05 12:12:33;;;;;;;8.18;4.35;;;;;;;;;;4906279;29;20032;-41
2023/06/05 12:15:17;;;;;;;14.85;4.50;;;;;;;;;;4909833;29;22948;-40
2023/06/05 12:17:50;;;;;;;8.73;5.80;;;;;;;;;;4907702;29;20114;-41
2023/06/05 12:20:16;;;;;;;14.20;5.40;;;;;;;;;;4910359;29;20091;-42
2023/06/05 12:22:42;;;;;;;16.58;5.43;;;;;;;;;;4892550;29;20115;-41
2023/06/05 12:25:21;;;;;;;12.13;6.10;;;;;;;;;;4907567;29;20140;-41
2023/06/05 12:27:48;;;;;;;14.07;7.30;;;;;;;;;;4907189;29;20052;-41
2023/06/05 12:30:16;;;;;;;15.82;9.57;;;;;;;;;;4908476;29;20048;-41
2023/06/05 12:32:43;;;;;;;14.77;7.13;;;;;;;;;;4903416;29;20040;-41
2023/06/05 12:35:22;;;;;;;11.90;9.10;;;;;;;;;;4906673;29;20035;-41
2023/06/05 12:37:49;;;;;;;8.43;7.30;;;;;;;;;;4907328;29;20079;-41
2023/06/05 12:40:17;;;;;;;10.27;6.05;;;;;;;;;;4906730;29;20039;-40
2023/06/05 12:42:43;;;;;;;10.25;5.90;;;;;;;;;;4906338;29;20071;-41
2023/06/05 12:45:10;;;;;;;8.95;5.30;;;;;;;;;;4908202;29;20107;-41
2023/06/05 12:47:37;;;;;;;4.70;4.18;;;;;;;;;;4908539;29;20438;-41
2023/06/05 12:50:03;;;;;;;8.30;5.22;;;;;;;;;;4908753;29;20486;-42
2023/06/05 12:52:30;;;;;;;5.55;5.03;;;;;;;;;;4908705;29;20197;-42
2023/06/05 12:54:56;;;;;;;7.85;4.88;;;;;;;;;;4908066;29;20028;-41
2023/06/05 12:57:22;;;;;;;10.32;4.22;;;;;;;;;;4906062;29;20389;-41
2023/06/05 12:59:47;;;;;;;4.97;3.67;;;;;;;;;;4909962;29;20042;-41
2023/06/05 13:02:13;;;;;;;11.95;4.30;;;;;;;;;;4908292;29;20044;-41
2023/06/05 13:04:42;;;;;;;4.03;3.50;;;;;;;;;;4906723;29;20465;-41
2023/06/05 13:07:08;;;;;;;8.52;3.88;;;;;;;;;;4905988;29;20095;-41
2023/06/05 13:09:34;;;;;;;4.85;3.53;;;;;;;;;;4907150;29;20485;-41
2023/06/05 13:11:59;;;;;;;6.38;3.72;;;;;;;;;;4908268;29;20078;-41
2023/06/05 13:14:25;;;;;;;3.78;3.25;;;;;;;;;;4908355;29;20465;-41
2023/06/05 13:16:51;;;;;;;7.82;4.03;;;;;;;;;;4906682;29;20044;-41
2023/06/05 13:19:16;;;;;;;7.05;3.67;;;;;;;;;;4906156;29;20572;-41
2023/06/05 13:21:42;;;;;;;4.70;3.50;;;;;;;;;;4908057;29;20119;-41
2023/06/05 13:24:07;;;;;;;4.72;3.42;;;;;;;;;;4904968;29;20065;-41
2023/06/05 13:26:32;;;;;;;5.40;3.50;;;;;;;;;;4908275;29;20493;-41
2023/06/05 13:28:58;;;;;;;5.88;3.53;;;;;;;;;;4907302;29;20059;-41
2023/06/05 13:31:24;;;;;;;4.57;3.30;;;;;;;;;;4907091;29;20036;-41
2023/06/05 13:33:50;;;;;;;3.40;2.95;;;;;;;;;;4905782;29;20038;-41
2023/06/05 13:36:15;;;;;;;4.82;3.60;;;;;;;;;;4906387;29;20032;-42
2023/06/05 13:38:42;;;;;;;8.10;3.40;;;;;;;;;;4908055;29;20032;-41
2023/06/05 13:41:08;;;;;;;6.40;3.28;;;;;;;;;;4906171;29;20028;-41
2023/06/05 13:43:34;;;;;;;3.85;2.72;;;;;;;;;;4909683;29;20032;-41
2023/06/05 13:46:00;;;;;;;4.22;2.80;;;;;;;;;;4908430;29;20036;-39
2023/06/05 13:48:26;;;;;;;5.22;2.95;;;;;;;;;;4905674;29;20053;-41
2023/06/05 13:50:51;;;;;;;3.63;2.92;;;;;;;;;;4904759;29;20040;-41
2023/06/05 13:53:17;;;;;;;5.30;3.10;;;;;;;;;;4905178;29;20518;-41
2023/06/05 13:55:42;;;;;;;3.47;3.10;;;;;;;;;;4907820;29;20045;-40
2023/06/05 13:58:09;;;;;;;3.83;3.25;;;;;;;;;;4902288;29;20036;-41
2023/06/05 14:00:35;;;;;;;4.70;2.78;;;;;;;;;;4904342;29;20067;-40
2023/06/05 14:03:00;;;;;;;3.10;2.80;;;;;;;;;;4908651;29;20036;-41
2023/06/05 14:05:26;;;;;;;6.97;2.53;;;;;;;;;;4907370;29;20034;-40
2023/06/05 14:07:52;;;;;;;2.53;2.33;;;;;;;;;;4903417;29;20063;-41
2023/06/05 14:10:19;;;;;;;8.95;2.70;;;;;;;;;;4906185;29;20267;-41
2023/06/05 14:12:45;;;;;;;7.38;3.10;;;;;;;;;;4903699;29;20128;-41
2023/06/05 14:15:10;;;;;;;4.45;2.58;;;;;;;;;;4905565;29;20537;-41
2023/06/05 14:17:36;;;;;;;5.90;2.90;;;;;;;;;;4904806;29;20045;-40
2023/06/05 14:20:01;;;;;;;5.05;2.88;;;;;;;;;;4903971;29;20040;-41
2023/06/05 14:22:27;;;;;;;3.60;2.45;;;;;;;;;;4903664;29;20250;-41
2023/06/05 14:24:53;;;;;;;6.00;2.67;;;;;;;;;;4905185;29;20383;-40
2023/06/05 14:27:18;;;;;;;5.43;2.75;;;;;;;;;;4903725;29;20047;-41
2023/06/05 14:29:44;;;;;;;2.67;2.45;;;;;;;;;;4907955;29;20054;-41
2023/06/05 14:32:10;;;;;;;5.05;2.80;;;;;;;;;;4907981;29;20044;-41
2023/06/05 14:34:36;;;;;;;3.70;2.70;;;;;;;;;;4907310;29;20032;-40
2023/06/05 14:37:01;;;;;;;3.88;2.55;;;;;;;;;;4905780;29;20059;-41
2023/06/05 14:39:27;;;;;;;4.00;2.33;;;;;;;;;;4906167;29;20032;-40
2023/06/05 14:41:52;;;;;;;2.97;2.70;;;;;;;;;;4897986;29;20534;-40
2023/06/05 14:44:17;;;;;;;3.72;2.72;;;;;;;;;;4896415;29;20143;-41
2023/06/05 14:46:43;;;;;;;6.32;2.85;;;;;;;;;;4901625;29;20059;-41